Time;durP1;ratioP1;P1;durP2;ratioP2;P2;SDS_P1;SDS_P2;PMS_P1;PMS_P2;Temp;Humidity;BMP_temperature;BMP_pressure;BME280_temperature;BME280_humidity;BME280_pressure;Samples;Min_cycle;Max_cycle;Signal;HPM_P1;HPM_P2
2021/08/29 00:02:31;;;;;;;;;40.75;35.00;;;;;24.92;63.53;100937.91;6245194;23;8781;-78
2021/08/29 00:05:28;;;;;;;;;37.50;33.75;;;;;24.74;64.08;100934.50;6245833;23;8803;-78
2021/08/29 00:08:23;;;;;;;;;45.75;37.50;;;;;24.64;63.99;100925.72;6227285;23;8782;-78
2021/08/29 00:11:19;;;;;;;;;47.75;38.50;;;;;24.55;63.83;100925.44;6246485;23;8797;-78
2021/08/29 00:14:15;;;;;;;;;46.25;39.00;;;;;24.39;63.91;100923.19;6248400;23;8815;-78
2021/08/29 00:17:11;;;;;;;;;43.25;37.50;;;;;24.24;64.74;100923.72;6245415;23;8789;-78
2021/08/29 00:20:07;;;;;;;;;40.25;34.25;;;;;24.05;65.86;100922.28;6245694;23;8774;-79
2021/08/29 00:23:03;;;;;;;;;42.50;35.50;;;;;24.28;65.99;100930.94;6227508;23;8781;-79
2021/08/29 00:25:59;;;;;;;;;46.50;39.00;;;;;24.23;65.06;100924.91;6246455;23;8936;-79
2021/08/29 00:28:54;;;;;;;;;53.25;43.00;;;;;23.98;65.85;100919.50;6224996;23;8785;-79
2021/08/29 00:31:50;;;;;;;;;49.25;42.25;;;;;23.69;67.04;100918.94;6246169;23;8825;-79
2021/08/29 00:34:46;;;;;;;;;47.50;40.00;;;;;23.68;67.04;100923.00;6246551;22;8801;-80
2021/08/29 00:37:42;;;;;;;;;48.50;40.50;;;;;23.72;67.63;100913.28;6246537;22;8843;-79
2021/08/29 00:40:15;;;;;;;;;50.00;40.50;;;;;23.65;68.01;100909.72;6256188;23;8793;-80
2021/08/29 00:43:11;;;;;;;;;46.75;39.25;;;;;23.41;69.35;100906.63;6245705;23;8773;-79
2021/08/29 00:46:10;;;;;;;;;50.25;42.75;;;;;23.43;68.95;100901.38;6246826;23;8801;-79
2021/08/29 00:49:09;;;;;;;;;52.00;44.00;;;;;23.34;69.36;100908.69;6245118;23;8801;-80
2021/08/29 00:52:05;;;;;;;;;42.00;36.75;;;;;23.34;70.06;100901.03;6227132;23;8773;-78
2021/08/29 00:55:01;;;;;;;;;43.75;38.00;;;;;23.48;67.19;100900.13;6245780;23;8816;-79
2021/08/29 00:57:57;;;;;;;;;36.50;32.50;;;;;23.73;64.02;100894.31;6243811;23;9549;-78
2021/08/29 01:00:55;;;;;;;;;31.75;30.50;;;;;23.94;62.36;100896.16;6245546;23;8801;-77
2021/08/29 01:03:56;;;;;;;;;27.00;27.00;;;;;23.94;59.76;100899.78;6244224;23;8821;-77
2021/08/29 01:07:00;;;;;;;;;37.50;33.50;;;;;23.89;63.37;100907.91;6247005;23;8805;-77
2021/08/29 01:10:01;;;;;;;;;38.75;35.00;;;;;23.63;65.38;100910.13;6245756;23;8793;-78
2021/08/29 01:12:59;;;;;;;;;45.00;38.25;;;;;23.30;67.01;100906.69;6244434;23;8791;-78
2021/08/29 01:16:01;;;;;;;;;44.00;38.00;;;;;23.15;68.29;100898.72;6247507;23;8789;-78
2021/08/29 01:19:00;;;;;;;;;41.50;36.75;;;;;22.96;69.00;100906.50;6245283;23;8866;-76
2021/08/29 01:21:57;;;;;;;;;43.25;37.00;;;;;23.33;68.20;100905.06;6244931;23;8858;-77
2021/08/29 01:24:53;;;;;;;;;38.25;34.25;;;;;23.43;68.07;100903.41;6245076;23;8777;-78
2021/08/29 01:28:18;;;;;;;;;40.50;36.00;;;;;23.41;67.82;100906.63;6244800;23;8770;-77
2021/08/29 01:31:14;;;;;;;;;39.75;35.00;;;;;23.36;66.79;100901.41;6244807;23;8789;-78
2021/08/29 01:34:15;;;;;;;;;39.50;35.00;;;;;23.39;67.24;100897.78;6244895;22;8809;-78
2021/08/29 01:37:11;;;;;;;;;36.75;33.25;;;;;23.54;68.01;100896.47;6244871;23;8797;-78
2021/08/29 01:40:09;;;;;;;;;40.25;34.75;;;;;23.71;66.85;100894.75;6244166;23;8769;-79
2021/08/29 01:43:06;;;;;;;;;45.00;38.00;;;;;23.53;66.90;100896.84;6225164;23;8785;-78
2021/08/29 01:46:02;;;;;;;;;43.50;35.50;;;;;23.10;66.93;100904.81;6245602;23;8765;-79
2021/08/29 01:48:58;;;;;;;;;45.00;37.25;;;;;23.38;68.69;100898.97;6245736;23;8800;-79
2021/08/29 01:51:55;;;;;;;;;41.50;36.50;;;;;23.28;67.30;100905.50;6244654;23;8901;-78
2021/08/29 01:54:50;;;;;;;;;40.75;35.75;;;;;23.32;66.85;100905.50;6248755;22;8816;-78
2021/08/29 01:57:46;;;;;;;;;45.50;38.75;;;;;23.31;66.74;100901.88;6244980;23;8789;-79
2021/08/29 02:01:08;;;;;;;;;40.25;36.25;;;;;23.19;67.37;100891.06;6244595;23;8785;-79
2021/08/29 02:04:04;;;;;;;;;38.50;34.50;;;;;23.61;68.02;100895.63;6224518;23;8797;-79
2021/08/29 02:07:07;;;;;;;;;37.50;34.25;;;;;23.38;67.19;100887.69;6226145;23;8789;-79
2021/08/29 02:10:15;;;;;;;;;46.00;39.75;;;;;23.12;67.52;100885.47;6225779;23;8777;-79
2021/08/29 02:13:12;;;;;;;;;45.50;38.25;;;;;23.28;67.93;100888.56;6246431;23;8819;-78
2021/08/29 02:16:17;;;;;;;;;42.50;37.25;;;;;23.30;66.55;100881.28;6224814;23;8785;-79
2021/08/29 02:19:17;;;;;;;;;40.25;35.25;;;;;23.42;67.54;100880.00;6225947;23;8823;-79
2021/08/29 02:22:14;;;;;;;;;47.50;40.25;;;;;23.22;67.19;100876.91;6244502;23;9610;-79
2021/08/29 02:25:10;;;;;;;;;51.25;38.00;;;;;23.16;67.32;100875.78;6226025;23;8781;-79
2021/08/29 02:28:06;;;;;;;;;47.25;39.00;;;;;23.07;68.07;100877.41;6244900;23;8793;-78
2021/08/29 02:31:02;;;;;;;;;52.50;43.75;;;;;22.90;68.29;100873.50;6243652;23;8808;-78
2021/08/29 02:33:58;;;;;;;;;47.25;40.00;;;;;22.79;68.69;100869.91;6226928;23;8777;-78
2021/08/29 02:36:54;;;;;;;;;45.25;39.00;;;;;22.83;68.65;100870.66;6242869;23;8858;-78
2021/08/29 02:39:51;;;;;;;;;45.25;38.50;;;;;22.89;68.25;100877.53;6227062;23;8805;-78
2021/08/29 02:42:49;;;;;;;;;46.00;39.00;;;;;22.80;69.55;100880.75;6243347;23;8805;-78
2021/08/29 02:45:47;;;;;;;;;41.00;35.00;;;;;22.67;68.68;100885.25;6245556;23;8781;-79
2021/08/29 02:48:46;;;;;;;;;48.25;39.25;;;;;22.79;68.79;100884.00;6224928;23;8817;-78
2021/08/29 02:51:15;;;;;;;;;39.50;35.25;;;;;22.73;69.02;100897.72;6227523;23;8770;-78
2021/08/29 02:54:12;;;;;;;;;43.75;36.50;;;;;22.75;68.42;100892.47;6246425;23;8816;-78
2021/08/29 02:57:12;;;;;;;;;44.50;38.00;;;;;22.54;69.63;100892.53;6246521;23;8797;-78
2021/08/29 03:00:12;;;;;;;;;44.75;37.50;;;;;22.46;70.86;100903.81;6227570;23;8778;-78
2021/08/29 03:03:12;;;;;;;;;46.50;40.00;;;;;22.68;69.91;100895.31;6227049;23;8816;-78
2021/08/29 03:06:08;;;;;;;;;42.75;36.75;;;;;22.60;70.17;100897.34;6248134;23;8797;-78
2021/08/29 03:09:04;;;;;;;;;45.25;38.25;;;;;22.57;70.69;100903.81;6226292;23;8778;-78
2021/08/29 03:12:07;;;;;;;;;44.25;37.75;;;;;22.41;70.77;100900.66;6246136;23;8825;-78
2021/08/29 03:15:02;;;;;;;;;46.50;39.75;;;;;22.35;70.95;100905.09;6226739;23;8785;-79
2021/08/29 03:17:59;;;;;;;;;48.50;40.50;;;;;22.62;71.23;100899.75;6246056;23;8797;-78
2021/08/29 03:20:55;;;;;;;;;43.50;37.75;;;;;22.79;69.46;100892.47;6230056;23;8781;-78
2021/08/29 03:23:50;;;;;;;;;44.50;38.25;;;;;22.72;70.57;100891.28;6245283;23;8833;-79
2021/08/29 03:26:46;;;;;;;;;54.25;41.75;;;;;22.75;70.04;100898.91;6246460;23;8777;-78
2021/08/29 03:29:43;;;;;;;;;45.00;38.75;;;;;22.80;70.86;100896.88;6246710;23;8793;-79
2021/08/29 03:32:41;;;;;;;;;47.75;39.25;;;;;23.20;69.32;100899.09;6245109;23;8793;-79
2021/08/29 03:35:37;;;;;;;;;41.75;36.50;;;;;23.22;69.55;100907.16;6244872;23;8832;-78
2021/08/29 03:38:33;;;;;;;;;52.75;44.25;;;;;23.34;68.26;100911.53;6246270;23;8790;-78
2021/08/29 03:41:30;;;;;;;;;61.67;50.00;;;;;23.06;67.98;100899.19;6225884;23;8800;-78
2021/08/29 03:44:27;;;;;;;;;68.33;52.33;;;;;23.15;67.81;100907.19;6246281;23;8934;-78
2021/08/29 03:47:22;;;;;;;;;65.33;51.33;;;;;23.11;68.69;100900.78;6245703;23;9276;-79
2021/08/29 03:50:18;;;;;;;;;74.00;58.67;;;;;23.12;66.78;100902.38;6245744;23;9386;-78
2021/08/29 03:53:16;;;;;;;;;76.75;65.25;;;;;23.16;66.51;100903.97;6225449;23;9415;-78
2021/08/29 03:56:13;;;;;;;;;59.00;48.00;;;;;23.29;66.15;100896.63;6244353;23;10248;-78
2021/08/29 03:59:09;;;;;;;;;57.67;48.00;;;;;23.41;65.38;100892.53;6226498;23;8873;-78
2021/08/29 04:02:05;;;;;;;;;56.25;45.25;;;;;23.45;64.52;100895.31;6245135;23;8857;-78
2021/08/29 04:05:01;;;;;;;;;58.00;47.75;;;;;23.47;64.34;100885.22;6244466;23;8805;-79
2021/08/29 04:08:00;;;;;;;;;66.00;53.50;;;;;23.53;62.30;100892.00;6245813;23;8773;-78
2021/08/29 04:10:59;;;;;;;;;68.50;56.50;;;;;23.45;61.40;100896.09;6225715;23;9423;-79
2021/08/29 04:13:56;;;;;;;;;73.00;63.00;;;;;23.57;61.46;100904.09;6246397;23;9708;-82
2021/08/29 04:16:55;;;;;;;;;72.00;61.75;;;;;23.66;61.75;100903.66;6225518;23;10087;-79
2021/08/29 04:19:54;;;;;;;;;74.00;67.25;;;;;23.60;61.41;100902.47;6245008;23;10490;-77
2021/08/29 04:22:52;;;;;;;;;78.50;72.50;;;;;23.74;61.09;100904.41;6247808;23;11379;-82
2021/08/29 04:25:51;;;;;;;;;78.25;70.00;;;;;23.57;61.62;100884.34;6227353;23;10528;-78
2021/08/29 04:28:47;;;;;;;;;84.50;77.50;;;;;23.73;61.03;100885.84;6245975;23;10707;-84
2021/08/29 04:31:48;;;;;;;;;80.50;74.00;;;;;23.84;62.12;100886.53;6243939;23;10649;-79
2021/08/29 04:34:43;;;;;;;;;92.25;83.25;;;;;23.99;61.31;100892.88;6224481;22;10740;-81
2021/08/29 04:37:39;;;;;;;;;90.00;80.25;;;;;24.01;61.49;100884.81;6243603;23;10972;-78
2021/08/29 04:40:34;;;;;;;;;83.00;78.25;;;;;23.88;61.34;100881.69;6244787;23;10859;-79
2021/08/29 04:43:33;;;;;;;;;74.50;63.50;;;;;23.88;60.61;100884.50;6245446;23;11390;-80
2021/08/29 04:46:29;;;;;;;;;63.50;52.00;;;;;24.10;61.41;100888.72;6244757;23;10813;-76
2021/08/29 04:49:25;;;;;;;;;73.75;62.75;;;;;24.04;60.86;100875.47;6247335;23;9804;-77
2021/08/29 04:52:20;;;;;;;;;72.00;60.50;;;;;24.00;60.91;100875.53;6245180;23;9676;-80
2021/08/29 04:55:16;;;;;;;;;66.75;54.50;;;;;24.20;61.30;100875.72;6245405;23;9515;-78
2021/08/29 04:58:11;;;;;;;;;65.00;51.00;;;;;24.16;61.09;100879.81;6227197;23;9600;-77
2021/08/29 05:01:07;;;;;;;;;76.25;65.50;;;;;24.49;61.05;100892.38;6244038;23;9990;-76
2021/08/29 05:04:03;;;;;;;;;68.00;53.67;;;;;24.58;59.82;100895.50;6243331;23;9427;-77
2021/08/29 05:06:58;;;;;;;;;77.00;61.67;;;;;24.64;59.92;100899.47;6244924;23;8923;-78
2021/08/29 05:09:54;;;;;;;;;74.67;61.67;;;;;24.84;59.90;100893.97;6247025;23;9786;-78
2021/08/29 05:12:49;;;;;;;;;72.33;62.00;;;;;24.99;60.21;100883.25;6224739;23;9329;-78
2021/08/29 05:15:45;;;;;;;;;71.00;56.00;;;;;25.11;60.04;100877.88;6243821;23;9190;-77
2021/08/29 05:18:40;;;;;;;;;69.75;57.75;;;;;25.17;59.41;100881.03;6245695;23;9010;-77
2021/08/29 05:21:36;;;;;;;;;73.67;62.33;;;;;25.28;59.97;100872.34;6243779;23;8785;-78
2021/08/29 05:24:31;;;;;;;;;77.33;68.67;;;;;25.24;59.48;100872.44;6244897;23;9342;-77
2021/08/29 05:27:27;;;;;;;;;77.00;65.00;;;;;25.29;60.17;100871.94;6224613;23;9481;-78
2021/08/29 05:30:22;;;;;;;;;78.33;63.67;;;;;25.50;59.85;100870.81;6224750;23;9320;-79
2021/08/29 05:33:18;;;;;;;;;76.33;66.67;;;;;25.55;59.44;100866.69;6246018;23;9267;-77
2021/08/29 05:36:13;;;;;;;;;72.00;62.33;;;;;25.82;59.65;100864.63;6244390;23;9865;-77
2021/08/29 05:39:09;;;;;;;;;79.50;71.00;;;;;26.04;58.40;100871.50;6245729;23;9030;-78
2021/08/29 05:42:06;;;;;;;;;76.67;64.00;;;;;26.21;58.03;100863.88;6245352;23;9538;-77
2021/08/29 05:45:02;;;;;;;;;87.00;75.00;;;;;26.41;58.34;100871.66;6244437;23;8973;-78
2021/08/29 05:47:58;;;;;;;;;76.00;69.67;;;;;26.56;58.09;100859.59;6224033;23;9248;-78
2021/08/29 05:50:53;;;;;;;;;69.25;54.75;;;;;26.68;57.53;100858.09;6243748;23;9259;-78
2021/08/29 05:53:49;;;;;;;;;64.50;49.50;;;;;26.59;57.38;100852.22;6242874;23;8790;-78
2021/08/29 05:56:45;;;;;;;;;66.50;46.75;;;;;26.86;57.25;100861.38;6244917;23;8793;-77
2021/08/29 05:59:40;;;;;;;;;33.25;31.00;;;;;26.94;57.50;100858.38;6244997;23;8936;-79
2021/08/29 06:02:36;;;;;;;;;45.00;39.00;;;;;27.12;57.31;100853.13;6242528;23;8890;-78
2021/08/29 06:05:33;;;;;;;;;42.00;36.75;;;;;27.32;56.92;100855.91;6243216;23;8789;-80
2021/08/29 06:08:28;;;;;;;;;36.00;33.00;;;;;27.55;56.47;100850.06;6243975;23;8935;-79
2021/08/29 06:11:24;;;;;;;;;34.40;32.00;;;;;27.77;55.97;100847.50;6242433;23;8797;-80
2021/08/29 06:14:19;;;;;;;;;26.00;26.00;;;;;27.81;55.37;100844.53;6223283;23;9523;-80
2021/08/29 06:17:15;;;;;;;;;27.00;26.40;;;;;27.97;55.03;100839.63;6241976;23;8807;-81
2021/08/29 06:20:11;;;;;;;;;31.00;30.00;;;;;28.05;54.14;100837.38;6241609;23;8939;-81
2021/08/29 06:23:07;;;;;;;;;29.60;29.00;;;;;28.20;54.73;100832.09;6244066;23;9471;-80
2021/08/29 06:26:03;;;;;;;;;29.80;29.00;;;;;28.29;54.14;100837.13;6223254;23;8797;-83
2021/08/29 06:28:58;;;;;;;;;29.00;28.80;;;;;28.38;53.20;100843.03;6244204;23;8765;-83
2021/08/29 06:31:55;;;;;;;;;30.40;28.60;;;;;28.50;52.92;100830.88;6245792;23;8793;-82
2021/08/29 06:34:51;;;;;;;;;29.40;29.00;;;;;28.80;52.73;100830.34;6242512;23;8797;-80
2021/08/29 06:37:47;;;;;;;;;28.20;27.40;;;;;29.01;52.32;100831.78;6225060;23;8846;-81
2021/08/29 06:40:42;;;;;;;;;30.20;29.00;;;;;29.19;52.50;100825.50;6242334;23;8884;-79
2021/08/29 06:43:38;;;;;;;;;22.40;21.20;;;;;29.51;50.74;100833.00;6240926;23;8935;-80
2021/08/29 06:46:34;;;;;;;;;24.60;24.00;;;;;29.52;50.89;100836.66;6241244;23;8793;-78
2021/08/29 06:49:29;;;;;;;;;21.40;21.40;;;;;29.73;49.49;100832.28;6221115;23;8785;-79
2021/08/29 06:52:25;;;;;;;;;22.40;22.40;;;;;29.95;49.60;100827.44;6240222;23;8796;-76
2021/08/29 06:55:20;;;;;;;;;24.40;24.40;;;;;30.19;48.91;100833.53;6244498;23;8851;-80
2021/08/29 06:58:16;;;;;;;;;20.40;20.40;;;;;30.38;48.44;100828.75;6245581;23;8804;-79
2021/08/29 07:01:13;;;;;;;;;21.20;21.20;;;;;30.43;47.61;100831.00;6241977;23;8827;-79
2021/08/29 07:04:09;;;;;;;;;20.00;20.00;;;;;30.65;47.83;100834.63;6245067;23;8796;-80
2021/08/29 07:07:04;;;;;;;;;24.20;24.20;;;;;30.52;46.83;100835.97;6246134;23;8793;-78
2021/08/29 07:10:01;;;;;;;;;19.60;19.60;;;;;30.70;46.42;100834.06;6246321;23;8773;-80
2021/08/29 07:12:56;;;;;;;;;20.20;20.20;;;;;30.88;45.95;100824.78;6243839;23;8820;-79
2021/08/29 07:15:52;;;;;;;;;16.80;16.80;;;;;31.19;44.73;100826.81;6245870;23;8809;-79
2021/08/29 07:19:02;;;;;;;;;17.80;17.80;;;;;30.90;44.85;100821.47;6250761;23;8826;-79
2021/08/29 07:21:58;;;;;;;;;16.20;16.20;;;;;31.27;44.55;100823.25;6250477;23;8789;-78
2021/08/29 07:24:54;;;;;;;;;15.60;15.60;;;;;31.47;44.29;100816.31;6226676;23;8815;-78
2021/08/29 07:27:49;;;;;;;;;17.20;17.20;;;;;31.65;43.08;100815.56;6246767;22;8865;-79
2021/08/29 07:30:45;;;;;;;;;18.00;18.00;;;;;31.86;42.08;100814.66;6244710;23;8801;-79
2021/08/29 07:33:41;;;;;;;;;19.80;18.00;;;;;32.03;41.77;100806.53;6242916;23;8902;-78
2021/08/29 07:36:36;;;;;;;;;15.40;15.40;;;;;32.12;41.69;100800.81;6244636;23;8900;-79
2021/08/29 07:39:32;;;;;;;;;13.60;13.60;;;;;32.07;41.44;100804.34;6245632;23;8820;-79
2021/08/29 07:42:27;;;;;;;;;15.00;15.00;;;;;32.27;40.39;100798.88;6247538;23;8808;-78
2021/08/29 07:45:23;;;;;;;;;8.40;8.40;;;;;32.32;40.90;100795.44;6230687;23;8879;-80
2021/08/29 07:48:19;;;;;;;;;13.80;13.80;;;;;32.56;40.66;100791.88;6246568;23;8793;-79
2021/08/29 07:51:15;;;;;;;;;14.40;14.40;;;;;32.60;39.61;100778.19;6225829;23;8817;-78
2021/08/29 07:54:10;;;;;;;;;14.80;14.80;;;;;32.37;39.82;100768.25;6245967;23;9520;-78
2021/08/29 07:57:06;;;;;;;;;14.00;14.00;;;;;32.56;39.67;100772.63;6246079;23;8792;-82
2021/08/29 08:00:03;;;;;;;;;11.80;11.80;;;;;32.58;39.16;100767.22;6225019;23;8789;-77
2021/08/29 08:02:59;;;;;;;;;12.00;12.00;;;;;32.85;39.70;100769.22;6226806;23;9495;-81
2021/08/29 08:05:54;;;;;;;;;12.60;12.60;;;;;32.86;38.84;100772.88;6244612;23;8862;-80
2021/08/29 08:08:50;;;;;;;;;12.20;12.20;;;;;32.96;39.41;100760.09;6244794;23;8833;-76
2021/08/29 08:11:46;;;;;;;;;12.60;12.60;;;;;32.88;38.23;100756.78;6246428;23;8781;-78
2021/08/29 08:14:41;;;;;;;;;15.60;15.60;;;;;33.14;38.73;100762.09;6226043;23;8879;-79
2021/08/29 08:17:37;;;;;;;;;12.60;12.60;;;;;33.43;38.10;100761.44;6245886;23;8835;-78
2021/08/29 08:20:32;;;;;;;;;11.40;11.40;;;;;33.19;37.78;100758.53;6250040;23;8800;-80
2021/08/29 08:23:28;;;;;;;;;13.00;13.00;;;;;33.49;38.07;100759.47;6246824;23;8891;-79
2021/08/29 08:26:24;;;;;;;;;12.20;12.20;;;;;33.48;37.18;100763.63;6244735;23;9681;-80
2021/08/29 08:29:19;;;;;;;;;13.00;13.00;;;;;33.59;37.13;100758.16;6245118;23;8807;-79
2021/08/29 08:32:15;;;;;;;;;14.80;14.80;;;;;33.67;37.36;100758.56;6246527;23;8777;-79
2021/08/29 08:35:11;;;;;;;;;11.40;10.20;;;;;33.81;36.81;100752.06;6246752;23;9493;-80
2021/08/29 08:38:06;;;;;;;;;11.20;11.20;;;;;34.18;37.23;100746.00;6245885;23;8933;-81
2021/08/29 08:41:06;;;;;;;;;11.80;11.80;;;;;34.28;36.80;100730.31;6226204;23;8895;-82
2021/08/29 08:44:03;;;;;;;;;10.20;10.20;;;;;34.29;35.44;100732.66;6247127;23;8785;-82
2021/08/29 08:47:04;;;;;;;;;17.20;17.20;;;;;34.62;36.40;100731.66;6226073;23;8801;-83
2021/08/29 08:50:00;;;;;;;;;16.00;14.40;;;;;34.31;35.65;100731.38;6243108;23;8805;-77
2021/08/29 08:53:00;;;;;;;;;17.40;17.40;;;;;34.29;36.13;100723.28;6245870;23;8781;-76
2021/08/29 08:55:57;;;;;;;;;13.40;12.60;;;;;34.18;34.83;100725.91;6243427;23;8827;-77
2021/08/29 08:58:58;;;;;;;;;13.80;13.80;;;;;34.22;35.16;100724.44;6246130;23;8919;-77
2021/08/29 09:01:57;;;;;;;;;13.00;13.00;;;;;34.46;34.10;100723.59;6224556;23;8856;-76
2021/08/29 09:04:54;;;;;;;;;10.80;10.80;;;;;34.46;33.96;100715.75;6225066;23;8900;-76
2021/08/29 09:07:50;;;;;;;;;11.40;11.40;;;;;34.70;33.58;100723.44;6225783;23;8903;-77
2021/08/29 09:10:46;;;;;;;;;11.60;11.40;;;;;34.78;33.32;100710.25;6224575;23;8871;-76
2021/08/29 09:13:48;;;;;;;;;11.00;10.20;;;;;34.73;33.23;100711.72;6245739;23;8840;-76
2021/08/29 09:16:50;;;;;;;;;21.00;19.20;;;;;34.42;32.57;100709.41;6244386;23;8823;-77
2021/08/29 09:19:46;;;;;;;;;24.20;23.60;;;;;34.03;32.72;100702.16;6245905;23;8785;-76
2021/08/29 09:22:43;;;;;;;;;16.80;16.80;;;;;34.35;32.26;100704.03;6241646;23;8823;-77
2021/08/29 09:25:41;;;;;;;;;19.00;19.00;;;;;34.54;32.11;100699.69;6244088;23;8777;-76
2021/08/29 09:28:38;;;;;;;;;10.60;10.60;;;;;35.04;31.85;100705.47;6223460;23;8805;-78
2021/08/29 09:32:07;;;;;;;;;11.60;11.60;;;;;35.04;31.34;100705.47;6242540;23;8785;-77
2021/08/29 09:35:07;;;;;;;;;10.80;10.80;;;;;35.08;31.23;100696.59;6204118;23;8832;-77
2021/08/29 09:38:06;;;;;;;;;10.20;10.20;;;;;35.23;31.36;100685.03;6243735;23;8797;-77
2021/08/29 09:41:02;;;;;;;;;3.00;3.00;;;;;35.38;30.28;100691.50;6243284;23;8789;-79
2021/08/29 09:44:05;;;;;;;;;11.60;11.60;;;;;35.58;30.63;100700.16;6242759;23;8907;-78
2021/08/29 09:47:04;;;;;;;;;7.80;7.80;;;;;35.70;30.23;100691.66;6242065;23;8864;-78
2021/08/29 09:50:04;;;;;;;;;9.20;9.20;;;;;35.75;28.99;100696.69;6223098;23;8899;-77
2021/08/29 09:53:11;;;;;;;;;10.00;10.00;;;;;35.92;29.45;100692.69;6222247;23;8911;-78
2021/08/29 09:56:29;;;;;;;;;11.20;10.60;;;;;35.86;30.17;100700.44;6242424;23;8797;-77
2021/08/29 09:59:47;;;;;;;;;9.40;9.40;;;;;35.90;29.46;100688.75;6221864;23;9541;-79
2021/08/29 10:02:42;;;;;;;;;10.60;10.60;;;;;36.15;29.32;100675.66;6242412;23;8809;-80
2021/08/29 10:05:38;;;;;;;;;9.40;9.40;;;;;36.21;28.97;100676.50;6236166;23;8891;-84
2021/08/29 10:08:46;;;;;;;;;8.80;8.80;;;;;36.35;28.89;100669.03;6234301;23;8796;-79
2021/08/29 10:11:42;;;;;;;;;11.20;11.00;;;;;35.89;28.63;100664.16;6233198;23;8789;-78
2021/08/29 10:14:40;;;;;;;;;10.80;10.80;;;;;36.22;28.99;100674.41;6215254;23;8863;-78
2021/08/29 10:17:39;;;;;;;;;8.80;8.80;;;;;36.47;28.55;100670.69;6246656;23;8789;-77
2021/08/29 10:20:36;;;;;;;;;8.60;8.60;;;;;36.55;27.71;100668.91;6243884;23;8797;-77
2021/08/29 10:23:32;;;;;;;;;9.80;9.40;;;;;36.55;28.51;100666.03;6244581;23;8920;-76
2021/08/29 10:26:02;;;;;;;;;11.20;11.20;;;;;36.53;28.11;100659.22;6253571;23;8782;-77
2021/08/29 10:29:13;;;;;;;;;9.60;9.60;;;;;36.16;27.73;100659.94;6245747;23;8781;-77
2021/08/29 10:32:25;;;;;;;;;10.00;10.00;;;;;36.26;27.21;100649.81;6224178;23;8781;-76
2021/08/29 10:34:53;;;;;;;;;7.60;7.60;;;;;36.74;28.11;100649.94;6252286;23;8833;-76
2021/08/29 10:37:21;;;;;;;;;9.00;9.00;;;;;36.93;27.61;100649.53;6253495;23;9459;-78
2021/08/29 10:40:18;;;;;;;;;10.00;10.00;;;;;37.13;26.98;100643.63;6223915;23;8816;-79
2021/08/29 10:43:15;;;;;;;;;8.00;8.00;;;;;37.05;26.54;100645.41;6243043;23;8855;-77
2021/08/29 10:45:57;;;;;;;;;4.00;3.80;;;;;37.38;26.42;100652.66;6197009;23;8782;-77
2021/08/29 10:48:54;;;;;;;;;8.40;8.40;;;;;37.44;26.37;100659.22;6244505;23;9476;-77
2021/08/29 10:51:26;;;;;;;;;8.80;8.80;;;;;37.57;25.92;100650.84;6253689;23;9580;-76
2021/08/29 10:53:58;;;;;;;;;10.80;10.80;;;;;37.20;26.33;100663.31;6254009;23;8854;-77
2021/08/29 10:56:54;;;;;;;;;10.00;10.00;;;;;37.63;25.54;100651.66;6244472;23;8809;-79
2021/08/29 11:00:04;;;;;;;;;9.20;9.20;;;;;37.90;25.15;100647.28;6245028;23;8797;-78
2021/08/29 11:03:00;;;;;;;;;8.00;8.00;;;;;37.82;24.28;100654.88;6223923;23;8800;-77
2021/08/29 11:05:55;;;;;;;;;7.00;7.00;;;;;37.61;24.83;100644.84;6244174;23;8804;-79
2021/08/29 11:08:51;;;;;;;;;11.20;11.20;;;;;37.33;25.40;100639.78;6244739;23;8829;-78
2021/08/29 11:11:50;;;;;;;;;7.60;7.60;;;;;37.18;25.40;100636.28;6244242;23;8784;-77
2021/08/29 11:14:53;;;;;;;;;9.40;9.40;;;;;37.40;26.18;100633.50;6246110;23;8793;-78
2021/08/29 11:18:03;;;;;;;;;9.80;9.80;;;;;37.65;24.93;100628.88;6246382;23;8793;-77
2021/08/29 11:20:33;;;;;;;;;7.60;7.40;;;;;37.90;25.58;100637.84;6230497;23;8777;-78
2021/08/29 11:23:48;;;;;;;;;7.80;7.80;;;;;37.68;25.23;100621.25;6225443;23;8781;-78
2021/08/29 11:26:45;;;;;;;;;7.20;7.20;;;;;38.03;25.19;100617.88;6245133;23;8777;-77
2021/08/29 11:29:40;;;;;;;;;11.20;11.20;;;;;38.43;26.03;100624.47;6226392;23;9558;-79
2021/08/29 11:32:39;;;;;;;;;7.40;7.40;;;;;38.82;24.61;100627.28;6228152;23;8801;-77
2021/08/29 11:35:08;;;;;;;;;9.80;9.80;;;;;38.59;25.54;100624.44;6253093;23;8777;-78
2021/08/29 11:37:37;;;;;;;;;9.20;9.20;;;;;38.57;25.50;100620.47;6195154;23;8816;-79
2021/08/29 11:40:20;;;;;;;;;9.00;9.00;;;;;38.71;25.08;100613.66;6247639;23;9480;-77
2021/08/29 11:43:30;;;;;;;;;9.00;9.00;;;;;38.76;24.64;100609.97;6226908;23;8866;-78
2021/08/29 11:46:28;;;;;;;;;9.80;9.80;;;;;38.51;25.00;100611.06;6244964;23;9489;-79
2021/08/29 11:49:21;;;;;;;;;8.80;8.80;;;;;38.77;24.37;100610.75;6255123;23;8777;-76
2021/08/29 11:51:50;;;;;;;;;7.80;7.80;;;;;38.78;24.61;100604.44;6219569;23;8789;-76
2021/08/29 11:54:46;;;;;;;;;6.60;6.60;;;;;38.47;25.32;100593.97;6246526;23;8785;-77
2021/08/29 11:57:50;;;;;;;;;9.00;9.00;;;;;38.24;26.23;100592.44;6226038;23;8785;-77
2021/08/29 12:00:50;;;;;;;;;8.40;8.40;;;;;37.78;27.52;100590.84;6248150;23;8817;-77
2021/08/29 12:03:46;;;;;;;;;9.60;9.60;;;;;37.86;27.76;100585.34;6245631;23;8842;-78
2021/08/29 12:06:53;;;;;;;;;9.80;9.80;;;;;37.42;27.96;100566.66;6245060;23;8829;-76
2021/08/29 12:09:49;;;;;;;;;7.00;7.00;;;;;37.33;26.42;100576.34;6245417;23;8800;-77
2021/08/29 12:12:46;;;;;;;;;8.00;8.00;;;;;37.25;28.26;100578.13;6245334;23;8899;-77
2021/08/29 12:15:14;;;;;;;;;7.00;7.00;;;;;37.35;26.75;100576.63;6254995;23;8773;-77
2021/08/29 12:17:45;;;;;;;;;7.60;7.60;;;;;37.35;26.88;100575.84;6255287;23;8781;-76
2021/08/29 12:20:14;;;;;;;;;8.80;8.80;;;;;37.99;27.54;100560.44;6256344;23;8888;-78
2021/08/29 12:22:42;;;;;;;;;8.60;8.60;;;;;38.16;25.78;100574.06;6219804;23;8825;-76
2021/08/29 12:25:38;;;;;;;;;9.00;9.00;;;;;38.72;26.26;100563.19;6224103;22;8867;-75
2021/08/29 12:28:34;;;;;;;;;6.80;6.80;;;;;38.47;25.35;100567.97;6227869;23;8777;-76
2021/08/29 12:31:40;;;;;;;;;10.40;10.40;;;;;37.93;26.19;100568.28;6224236;23;8785;-77
2021/08/29 12:34:28;;;;;;;;;7.00;7.00;;;;;37.72;25.71;100561.97;6223288;22;8855;-77
2021/08/29 12:37:25;;;;;;;;;7.80;7.80;;;;;38.54;25.72;100560.88;6227310;23;8922;-77
2021/08/29 12:40:22;;;;;;;;;10.60;10.60;;;;;38.44;26.30;100562.50;6245527;23;8785;-79
2021/08/29 12:43:19;;;;;;;;;8.20;8.20;;;;;37.86;25.31;100565.94;6226442;23;8790;-80
2021/08/29 12:45:48;;;;;;;;;8.20;8.20;;;;;38.05;25.83;100564.09;6248870;23;8788;-79
2021/08/29 12:48:44;;;;;;;;;7.00;7.00;;;;;38.24;25.79;100560.69;6226666;23;8871;-80
2021/08/29 12:51:43;;;;;;;;;13.20;13.00;;;;;37.89;25.68;100564.91;6245970;23;8792;-80
2021/08/29 12:54:39;;;;;;;;;12.40;12.40;;;;;38.18;25.36;100568.53;6244516;23;8781;-81
2021/08/29 12:57:29;;;;;;;;;12.40;12.40;;;;;37.99;24.61;100562.53;6227142;23;9454;-82
2021/08/29 13:00:38;;;;;;;;;7.80;7.80;;;;;38.46;24.60;100556.97;6245043;23;8789;-79
2021/08/29 13:03:20;;;;;;;;;6.80;6.80;;;;;37.89;24.65;100561.22;6223422;23;8789;-79
2021/08/29 13:06:21;;;;;;;;;9.00;9.00;;;;;37.48;25.17;100555.91;6244780;23;8797;-79
2021/08/29 13:08:52;;;;;;;;;7.00;7.00;;;;;37.68;26.07;100552.78;6255971;23;8765;-80
2021/08/29 13:11:48;;;;;;;;;8.40;7.80;;;;;37.93;25.37;100573.28;6245263;23;8793;-79
2021/08/29 13:14:46;;;;;;;;;6.80;6.80;;;;;38.23;24.70;100559.88;6225658;23;8824;-79
2021/08/29 13:17:45;;;;;;;;;7.80;7.80;;;;;38.47;25.03;100564.31;6245736;23;8844;-80
2021/08/29 13:20:43;;;;;;;;;7.00;7.00;;;;;38.16;26.06;100554.63;6247070;23;8949;-79
2021/08/29 13:23:33;;;;;;;;;6.00;6.00;;;;;37.81;26.00;100550.22;6229191;23;8778;-78
2021/08/29 13:26:33;;;;;;;;;8.60;8.60;;;;;38.07;26.72;100547.03;6244677;23;8797;-83
2021/08/29 13:29:36;;;;;;;;;11.00;11.00;;;;;37.98;25.08;100552.31;6247420;23;8831;-79
2021/08/29 13:32:34;;;;;;;;;7.60;7.60;;;;;38.07;24.65;100547.03;6244402;23;8797;-77